Time;durP1;ratioP1;P1;durP2;ratioP2;P2;SDS_P1;SDS_P2;PMS_P1;PMS_P2;Temp;Humidity;BMP_temperature;BMP_pressure;BME280_temperature;BME280_humidity;BME280_pressure;Samples;Min_cycle;Max_cycle;Signal;HPM_P1;HPM_P2
2023/03/07 00:00:56;;;;;;;0.40;0.40;;;3.00;99.90;;;;;;5051601;28;20293;-84
2023/03/07 00:03:22;;;;;;;0.00;0.00;;;3.00;99.90;;;;;;5051515;28;20052;-84
2023/03/07 00:05:48;;;;;;;0.65;0.32;;;3.00;99.90;;;;;;5051973;28;20122;-83
2023/03/07 00:08:13;;;;;;;0.30;0.30;;;3.10;99.90;;;;;;5050170;28;20041;-84
2023/03/07 00:10:39;;;;;;;0.40;0.40;;;3.20;99.90;;;;;;5050831;28;20051;-83
2023/03/07 00:13:05;;;;;;;0.00;0.00;;;3.20;99.90;;;;;;5050691;28;20087;-84
2023/03/07 00:15:31;;;;;;;0.47;0.35;;;3.20;99.90;;;;;;5049633;28;20132;-84
2023/03/07 00:17:57;;;;;;;1.90;0.88;;;3.20;99.90;;;;;;5051080;28;20096;-84
2023/03/07 00:20:23;;;;;;;0.40;0.40;;;3.20;99.90;;;;;;5049787;28;20049;-84
2023/03/07 00:22:48;;;;;;;0.25;0.25;;;3.30;99.90;;;;;;5047340;28;20128;-85
2023/03/07 00:25:14;;;;;;;1.50;1.35;;;3.30;99.90;;;;;;5048671;28;20055;-85
2023/03/07 00:27:40;;;;;;;0.43;0.40;;;3.30;99.90;;;;;;5047884;28;20128;-85
2023/03/07 00:30:06;;;;;;;0.00;0.00;;;3.30;99.90;;;;;;5047875;28;20037;-86
2023/03/07 00:32:32;;;;;;;0.93;0.70;;;3.40;99.90;;;;;;5048110;28;20052;-85
2023/03/07 00:34:59;;;;;;;0.80;0.65;;;3.30;99.90;;;;;;5048506;28;20195;-84
2023/03/07 00:37:25;;;;;;;0.03;0.03;;;3.40;99.90;;;;;;5048697;28;20053;-84
2023/03/07 00:39:51;;;;;;;1.25;0.30;;;3.40;99.90;;;;;;5049142;28;20051;-84
2023/03/07 00:42:16;;;;;;;0.00;0.00;;;3.40;99.90;;;;;;5050292;28;20056;-84
2023/03/07 00:44:42;;;;;;;0.00;0.00;;;3.30;99.90;;;;;;5050864;28;20526;-84
2023/03/07 00:47:08;;;;;;;0.00;0.00;;;3.20;99.90;;;;;;5049697;28;20111;-84
2023/03/07 00:49:34;;;;;;;0.10;0.10;;;3.10;99.90;;;;;;5051151;28;20048;-84
2023/03/07 00:52:00;;;;;;;0.00;0.00;;;3.00;99.90;;;;;;5051525;28;20037;-84
2023/03/07 00:54:26;;;;;;;0.00;0.00;;;2.90;99.90;;;;;;5050611;28;20045;-84
2023/03/07 00:56:51;;;;;;;0.00;0.00;;;2.80;99.90;;;;;;5051787;28;20495;-85
2023/03/07 00:59:17;;;;;;;0.08;0.08;;;2.70;99.90;;;;;;5051772;28;20106;-84
2023/03/07 01:01:43;;;;;;;0.00;0.00;;;2.70;99.90;;;;;;5050737;28;20045;-84
2023/03/07 01:04:09;;;;;;;0.00;0.00;;;2.70;99.90;;;;;;5052119;28;20060;-84
2023/03/07 01:06:35;;;;;;;0.32;0.30;;;2.80;99.90;;;;;;5051775;28;20037;-84
2023/03/07 01:09:06;;;;;;;0.00;0.00;;;2.90;99.90;;;;;;5052063;28;20049;-83
2023/03/07 01:11:32;;;;;;;0.10;0.10;;;2.90;99.90;;;;;;5049541;28;20791;-84
2023/03/07 01:14:00;;;;;;;0.00;0.00;;;2.90;99.90;;;;;;5050778;28;20102;-84
2023/03/07 01:16:28;;;;;;;0.00;0.00;;;2.90;99.90;;;;;;5049961;28;20051;-84
2023/03/07 01:18:58;;;;;;;0.00;0.00;;;2.90;99.90;;;;;;5051461;28;20044;-84
2023/03/07 01:21:28;;;;;;;0.00;0.00;;;2.90;99.90;;;;;;5050758;28;20064;-84
2023/03/07 01:23:54;;;;;;;0.00;0.00;;;3.00;99.90;;;;;;5051350;28;20080;-84
2023/03/07 01:26:25;;;;;;;0.00;0.00;;;3.00;99.90;;;;;;5050774;28;20051;-84
2023/03/07 01:28:52;;;;;;;0.00;0.00;;;2.90;99.90;;;;;;5051005;28;20574;-85
2023/03/07 01:31:17;;;;;;;0.10;0.10;;;2.90;99.90;;;;;;5051767;28;20057;-85
2023/03/07 01:33:45;;;;;;;1.23;1.13;;;3.00;99.90;;;;;;5049992;28;20536;-84
2023/03/07 01:36:24;;;;;;;0.00;0.00;;;3.00;99.90;;;;;;5050431;28;20454;-84
2023/03/07 01:38:54;;;;;;;0.25;0.25;;;3.00;99.90;;;;;;5050328;28;20517;-84
2023/03/07 01:41:20;;;;;;;0.00;0.00;;;3.00;99.90;;;;;;5050520;28;20406;-84
2023/03/07 01:43:46;;;;;;;0.55;0.30;;;3.10;99.90;;;;;;5049371;28;20095;-84
2023/03/07 01:46:18;;;;;;;0.00;0.00;;;3.10;99.90;;;;;;5049631;28;20057;-84
2023/03/07 01:48:47;;;;;;;0.00;0.00;;;3.10;99.90;;;;;;5049460;28;20110;-84
2023/03/07 01:51:13;;;;;;;0.10;0.10;;;3.10;99.90;;;;;;5048450;28;20041;-84
2023/03/07 01:53:39;;;;;;;0.10;0.10;;;3.10;99.90;;;;;;5047566;28;20078;-84
2023/03/07 01:56:06;;;;;;;0.00;0.00;;;3.00;99.90;;;;;;5049384;28;20048;-84
2023/03/07 01:58:35;;;;;;;0.00;0.00;;;3.00;99.90;;;;;;5047349;28;20049;-84
2023/03/07 02:01:01;;;;;;;0.00;0.00;;;3.00;99.90;;;;;;5029028;28;20054;-84
2023/03/07 02:03:53;;;;;;;0.28;0.28;;;2.90;99.90;;;;;;5028796;28;20046;-84
2023/03/07 02:06:19;;;;;;;0.10;0.10;;;2.90;99.90;;;;;;5028450;28;20065;-84
2023/03/07 02:08:48;;;;;;;0.57;0.57;;;3.00;99.90;;;;;;5029874;28;20050;-85
2023/03/07 02:11:15;;;;;;;0.00;0.00;;;2.90;99.90;;;;;;5048237;28;20259;-85
2023/03/07 02:13:40;;;;;;;0.00;0.00;;;2.90;99.90;;;;;;5047836;28;20052;-85
2023/03/07 02:16:07;;;;;;;0.00;0.00;;;2.90;99.90;;;;;;5049037;28;20071;-84
2023/03/07 02:18:37;;;;;;;0.00;0.00;;;2.80;99.90;;;;;;5048096;28;20091;-84
2023/03/07 02:21:11;;;;;;;0.10;0.10;;;2.80;99.90;;;;;;5045801;28;20159;-85
2023/03/07 02:24:06;;;;;;;0.00;0.00;;;2.70;99.90;;;;;;5048426;28;20495;-85
2023/03/07 02:26:46;;;;;;;0.00;0.00;;;2.60;99.90;;;;;;5047860;28;20049;-86
2023/03/07 02:29:13;;;;;;;0.00;0.00;;;2.60;99.90;;;;;;5048321;28;20236;-84
2023/03/07 02:31:40;;;;;;;10.07;1.23;;;2.50;99.90;;;;;;5048792;28;20044;-84
2023/03/07 02:34:26;;;;;;;0.00;0.00;;;2.50;99.90;;;;;;5049842;28;20044;-85
2023/03/07 02:36:57;;;;;;;0.00;0.00;;;2.50;99.90;;;;;;5065586;28;20051;-85
2023/03/07 02:39:24;;;;;;;0.00;0.00;;;2.30;99.90;;;;;;5063573;28;20040;-85
2023/03/07 02:41:53;;;;;;;0.00;0.00;;;2.30;99.90;;;;;;5065010;28;20106;-84
2023/03/07 02:44:20;;;;;;;0.32;0.32;;;2.20;99.90;;;;;;5062230;28;20589;-84
2023/03/07 02:46:46;;;;;;;0.00;0.00;;;2.20;99.90;;;;;;5048502;28;20057;-84
2023/03/07 02:49:12;;;;;;;6.75;1.75;;;2.20;99.90;;;;;;5047018;28;20592;-84
2023/03/07 02:51:37;;;;;;;0.00;0.00;;;2.20;99.90;;;;;;5048633;28;20108;-84
2023/03/07 02:54:03;;;;;;;0.32;0.32;;;2.10;99.90;;;;;;5048393;28;20096;-84
2023/03/07 02:56:30;;;;;;;0.00;0.00;;;2.10;99.90;;;;;;5048208;28;20053;-85
2023/03/07 02:58:55;;;;;;;0.00;0.00;;;2.10;99.90;;;;;;5046968;28;20438;-84
2023/03/07 03:01:21;;;;;;;0.00;0.00;;;2.20;99.90;;;;;;5047087;28;20060;-85
2023/03/07 03:03:47;;;;;;;0.10;0.10;;;2.20;99.90;;;;;;5048237;28;20102;-84
2023/03/07 03:06:13;;;;;;;0.28;0.28;;;2.30;99.90;;;;;;5047645;28;20503;-84
2023/03/07 03:08:39;;;;;;;0.00;0.00;;;2.30;99.90;;;;;;5047341;28;20494;-85
2023/03/07 03:11:04;;;;;;;0.00;0.00;;;2.30;99.90;;;;;;5047952;28;20120;-84
2023/03/07 03:13:30;;;;;;;0.00;0.00;;;3.40;99.90;;;;;;5048637;28;20087;-84
2023/03/07 03:15:56;;;;;;;0.75;0.75;;;2.20;99.90;;;;;;5047919;28;20049;-84
2023/03/07 03:18:26;;;;;;;0.00;0.00;;;2.10;99.90;;;;;;5047562;28;20033;-85
2023/03/07 03:20:51;;;;;;;0.15;0.15;;;2.00;99.90;;;;;;5047046;28;20053;-85
2023/03/07 03:23:17;;;;;;;0.00;0.00;;;2.00;99.90;;;;;;5048284;28;20071;-84
2023/03/07 03:25:42;;;;;;;0.00;0.00;;;1.90;99.90;;;;;;5047385;28;20049;-84
2023/03/07 03:28:08;;;;;;;0.00;0.00;;;1.90;99.90;;;;;;5047303;28;20384;-84
2023/03/07 03:30:34;;;;;;;0.00;0.00;;;1.90;99.90;;;;;;5049000;28;20048;-84
2023/03/07 03:33:02;;;;;;;0.00;0.00;;;1.90;99.90;;;;;;5047536;28;20049;-85
2023/03/07 03:35:27;;;;;;;0.60;0.60;;;2.40;99.90;;;;;;5046835;28;20123;-85
2023/03/07 03:37:53;;;;;;;0.10;0.10;;;1.80;99.90;;;;;;5047222;28;20179;-85
2023/03/07 03:40:19;;;;;;;0.00;0.00;;;1.80;99.90;;;;;;5046948;28;20045;-85
2023/03/07 03:42:45;;;;;;;0.00;0.00;;;1.80;99.90;;;;;;5048553;28;20049;-85
2023/03/07 03:45:13;;;;;;;0.00;0.00;;;1.70;99.90;;;;;;5047758;28;20136;-84
2023/03/07 03:47:39;;;;;;;0.00;0.00;;;1.80;99.90;;;;;;5048210;28;20041;-84
2023/03/07 03:50:05;;;;;;;0.20;0.20;;;1.80;99.90;;;;;;5047499;28;20402;-84
2023/03/07 03:52:31;;;;;;;0.00;0.00;;;1.90;99.90;;;;;;5047023;28;20563;-85
2023/03/07 03:54:57;;;;;;;0.38;0.38;;;1.80;99.90;;;;;;5047154;28;20124;-84
2023/03/07 03:57:23;;;;;;;0.00;0.00;;;1.70;99.90;;;;;;5049650;28;20127;-85
2023/03/07 03:59:50;;;;;;;0.00;0.00;;;1.70;99.90;;;;;;5050277;28;20152;-85
2023/03/07 04:02:15;;;;;;;0.00;0.00;;;1.60;99.90;;;;;;5046093;28;20049;-84
2023/03/07 04:04:41;;;;;;;0.90;0.85;;;1.50;99.90;;;;;;5029506;28;20080;-85
2023/03/07 04:07:07;;;;;;;0.00;0.00;;;1.60;99.90;;;;;;5029258;28;20056;-84
2023/03/07 04:09:33;;;;;;;0.32;0.32;;;1.50;99.90;;;;;;5045948;28;20044;-84
2023/03/07 04:11:58;;;;;;;0.00;0.00;;;1.60;99.90;;;;;;5049581;28;20066;-84
2023/03/07 04:14:24;;;;;;;0.00;0.00;;;1.60;99.90;;;;;;5050610;28;20083;-84
2023/03/07 04:16:50;;;;;;;0.00;0.00;;;1.60;3.90;;;;;;5050035;28;20107;-84
2023/03/07 04:19:16;;;;;;;0.00;0.00;;;1.60;99.90;;;;;;5050601;28;20037;-84
2023/03/07 04:21:41;;;;;;;0.00;0.00;;;1.50;1.00;;;;;;5050983;28;20127;-84
2023/03/07 04:24:07;;;;;;;0.00;0.00;;;1.40;1.00;;;;;;5050695;28;20041;-84
2023/03/07 04:26:34;;;;;;;0.00;0.00;;;1.50;1.00;;;;;;5050869;28;20049;-84
2023/03/07 04:29:00;;;;;;;0.10;0.10;;;1.40;1.00;;;;;;5050956;28;20098;-84
2023/03/07 04:31:27;;;;;;;0.03;0.03;;;1.40;99.90;;;;;;5051142;28;20048;-84
2023/03/07 04:33:54;;;;;;;16.08;1.88;;;1.50;99.90;;;;;;5051394;28;20132;-85
2023/03/07 04:36:20;;;;;;;0.00;0.00;;;1.40;99.90;;;;;;5051020;28;20503;-84
2023/03/07 04:38:47;;;;;;;0.00;0.00;;;1.50;99.90;;;;;;5050112;28;20507;-84
2023/03/07 04:41:18;;;;;;;1.38;1.27;;;1.40;21.40;;;;;;5052326;28;20079;-84
2023/03/07 04:43:44;;;;;;;0.00;0.00;;;1.40;99.90;;;;;;5051383;28;20044;-85
2023/03/07 04:46:12;;;;;;;0.43;0.40;;;1.40;99.90;;;;;;5052208;28;20457;-84
2023/03/07 04:48:38;;;;;;;0.00;0.00;;;1.50;21.60;;;;;;5051386;28;20048;-84
2023/03/07 04:51:04;;;;;;;0.00;0.00;;;1.50;1.00;;;;;;5049215;28;20137;-84
2023/03/07 04:53:30;;;;;;;0.00;0.00;;;1.40;99.90;;;;;;5051053;28;20056;-84
2023/03/07 04:56:00;;;;;;;0.03;0.03;;;1.40;99.90;;;;;;5049821;28;20056;-84
2023/03/07 04:58:28;;;;;;;0.13;0.13;;;1.40;99.90;;;;;;5050139;28;20071;-84
2023/03/07 05:00:55;;;;;;;0.00;0.00;;;1.40;99.90;;;;;;5051629;28;20110;-85
2023/03/07 05:03:22;;;;;;;0.00;0.00;;;1.50;61.50;;;;;;5051343;28;20060;-84
2023/03/07 05:05:48;;;;;;;0.00;0.00;;;1.40;99.90;;;;;;5051273;28;20053;-84
2023/03/07 05:08:14;;;;;;;0.00;0.00;;;1.40;99.90;;;;;;5051257;28;20045;-84
2023/03/07 05:10:40;;;;;;;0.00;0.00;;;1.40;99.90;;;;;;5051528;28;20037;-84
2023/03/07 05:13:06;;;;;;;0.10;0.10;;;1.40;99.90;;;;;;5052419;28;20040;-84
2023/03/07 05:15:33;;;;;;;0.00;0.00;;;1.40;99.90;;;;;;5051254;28;20037;-84
2023/03/07 05:17:59;;;;;;;0.00;0.00;;;1.60;99.90;;;;;;5051586;28;20045;-84
2023/03/07 05:20:25;;;;;;;0.00;0.00;;;1.60;1.00;;;;;;5051645;28;20044;-84
2023/03/07 05:22:50;;;;;;;0.00;0.00;;;1.60;99.90;;;;;;5051554;28;20056;-84
2023/03/07 05:25:16;;;;;;;0.00;0.00;;;1.60;99.90;;;;;;5052952;28;20053;-83
2023/03/07 05:27:42;;;;;;;0.40;0.40;;;1.80;99.90;;;;;;5049307;28;20123;-84
2023/03/07 05:30:09;;;;;;;0.88;0.30;;;1.70;1.00;;;;;;5052385;28;20052;-84
2023/03/07 05:32:34;;;;;;;0.00;0.00;;;1.80;99.90;;;;;;5052344;28;20045;-84
2023/03/07 05:35:00;;;;;;;0.00;0.00;;;1.70;1.00;;;;;;5050946;28;20076;-84
2023/03/07 05:37:26;;;;;;;0.10;0.10;;;1.70;1.00;;;;;;5051015;28;20051;-84
2023/03/07 05:39:51;;;;;;;0.63;0.63;;;1.70;1.00;;;;;;5050608;28;20056;-84
2023/03/07 05:42:17;;;;;;;0.00;0.00;;;1.90;42.30;;;;;;5051584;28;20567;-84
2023/03/07 05:44:43;;;;;;;0.00;0.00;;;1.90;99.90;;;;;;5051126;28;20105;-84
2023/03/07 05:47:09;;;;;;;0.00;0.00;;;1.90;1.00;;;;;;5050605;28;20509;-84
2023/03/07 05:49:34;;;;;;;0.00;0.00;;;1.90;99.90;;;;;;5051931;28;20876;-84
2023/03/07 05:52:00;;;;;;;0.00;0.00;;;1.90;99.90;;;;;;5052333;28;20040;-84
2023/03/07 05:54:25;;;;;;;0.00;0.00;;;1.90;99.90;;;;;;5051693;28;20045;-84
2023/03/07 05:56:51;;;;;;;0.00;0.00;;;2.00;99.90;;;;;;5050465;28;20045;-84
2023/03/07 05:59:17;;;;;;;0.20;0.20;;;2.00;99.90;;;;;;5047496;28;20056;-84
2023/03/07 06:01:43;;;;;;;0.00;0.00;;;2.10;95.40;;;;;;5050322;28;20048;-84
2023/03/07 06:04:09;;;;;;;0.05;0.05;;;1.90;99.90;;;;;;5048010;28;20041;-84
2023/03/07 06:06:34;;;;;;;1.42;1.33;;;1.90;1.00;;;;;;5047801;28;20052;-84
2023/03/07 06:09:00;;;;;;;0.00;0.00;;;2.00;95.10;;;;;;5047843;28;20044;-84
2023/03/07 06:11:26;;;;;;;1.00;0.57;;;1.80;1.00;;;;;;5039142;28;20116;-84
2023/03/07 06:13:51;;;;;;;0.00;0.00;;;1.80;1.00;;;;;;5046240;28;20129;-85
2023/03/07 06:16:17;;;;;;;0.00;0.00;;;1.80;1.00;;;;;;5048247;28;20041;-85
2023/03/07 06:18:43;;;;;;;0.00;0.00;;;1.80;99.90;;;;;;5048081;28;20048;-84
2023/03/07 06:21:11;;;;;;;0.00;0.00;;;1.80;99.90;;;;;;5046245;28;20044;-84
2023/03/07 06:23:37;;;;;;;0.00;0.00;;;1.80;1.00;;;;;;5048296;28;20037;-84
2023/03/07 06:26:04;;;;;;;0.00;0.00;;;1.80;1.00;;;;;;5063041;28;20558;-84
2023/03/07 06:28:29;;;;;;;0.40;0.40;;;1.80;93.70;;;;;;5049366;28;20080;-84
2023/03/07 06:30:55;;;;;;;0.20;0.20;;;1.80;99.90;;;;;;5049781;28;20467;-84
2023/03/07 06:33:21;;;;;;;0.00;0.00;;;1.90;44.90;;;;;;5048640;28;20049;-84
2023/03/07 06:35:46;;;;;;;0.65;0.55;;;1.90;99.90;;;;;;5043380;28;20961;-84
2023/03/07 06:38:15;;;;;;;0.10;0.10;;;2.00;99.90;;;;;;5043914;28;20605;-85
2023/03/07 06:40:41;;;;;;;0.00;0.00;;;2.10;99.90;;;;;;5042899;28;20052;-84
2023/03/07 06:43:06;;;;;;;0.22;0.22;;;2.10;78.90;;;;;;5042566;28;20059;-85
2023/03/07 06:45:32;;;;;;;0.00;0.00;;;2.20;50.90;;;;;;5043080;28;20143;-84
2023/03/07 06:47:58;;;;;;;0.00;0.00;;;2.20;20.80;;;;;;5043176;28;20037;-84
2023/03/07 06:50:24;;;;;;;0.00;0.00;;;2.20;50.20;;;;;;5043114;28;20124;-84
2023/03/07 06:52:50;;;;;;;0.00;0.00;;;2.30;1.00;;;;;;5042780;28;20402;-84
2023/03/07 06:55:17;;;;;;;0.00;0.00;;;2.40;1.00;;;;;;5044479;28;20048;-84
2023/03/07 06:57:43;;;;;;;0.00;0.00;;;2.40;1.00;;;;;;5046057;28;20642;-84
2023/03/07 07:00:10;;;;;;;0.00;0.00;;;2.50;1.00;;;;;;5045561;28;20467;-84
2023/03/07 07:02:35;;;;;;;0.10;0.10;;;2.50;1.00;;;;;;5044181;28;20200;-84
2023/03/07 07:05:02;;;;;;;0.22;0.22;;;2.50;99.90;;;;;;5044184;28;20041;-84
2023/03/07 07:07:27;;;;;;;0.00;0.00;;;2.60;99.90;;;;;;5045296;28;20139;-84
2023/03/07 07:09:53;;;;;;;0.00;0.00;;;2.60;99.90;;;;;;5043928;28;20173;-84
2023/03/07 07:12:19;;;;;;;0.10;0.10;;;2.60;99.90;;;;;;5043683;28;20067;-84
2023/03/07 07:14:45;;;;;;;0.00;0.00;;;2.60;67.20;;;;;;5044270;28;20040;-84
2023/03/07 07:17:11;;;;;;;0.00;0.00;;;2.60;1.00;;;;;;5044341;28;20049;-84
2023/03/07 07:19:36;;;;;;;0.20;0.20;;;2.60;99.90;;;;;;5043987;28;20498;-84
2023/03/07 07:22:03;;;;;;;0.10;0.10;;;2.60;99.90;;;;;;5043907;28;20037;-84
2023/03/07 07:24:29;;;;;;;0.82;0.82;;;2.60;99.90;;;;;;5040040;28;20056;-84
2023/03/07 07:26:54;;;;;;;0.00;0.00;;;2.60;99.90;;;;;;5035731;28;20048;-84
2023/03/07 07:29:21;;;;;;;0.00;0.00;;;2.60;1.00;;;;;;5076985;28;20052;-84
2023/03/07 07:31:48;;;;;;;0.00;0.00;;;2.60;99.90;;;;;;5047083;28;20045;-84
2023/03/07 07:34:14;;;;;;;1.80;0.47;;;2.60;44.60;;;;;;5081038;28;20056;-84
2023/03/07 07:36:40;;;;;;;2.50;0.88;;;2.70;1.00;;;;;;5047925;28;20059;-84
2023/03/07 07:39:06;;;;;;;0.47;0.47;;;2.70;99.90;;;;;;5047259;28;20049;-84
2023/03/07 07:41:33;;;;;;;0.00;0.00;;;2.60;28.40;;;;;;5046493;28;20917;-84
2023/03/07 07:43:59;;;;;;;0.10;0.10;;;2.50;86.60;;;;;;5045689;28;20071;-84
2023/03/07 07:46:27;;;;;;;0.00;0.00;;;2.50;99.90;;;;;;5045688;28;20118;-84
2023/03/07 07:48:53;;;;;;;0.20;0.20;;;2.50;99.90;;;;;;5045992;28;20518;-84
2023/03/07 07:51:18;;;;;;;0.00;0.00;;;2.50;1.00;;;;;;5046277;28;20052;-84
2023/03/07 07:53:44;;;;;;;0.00;0.00;;;2.50;30.10;;;;;;5046072;28;20688;-84
2023/03/07 07:56:10;;;;;;;0.00;0.00;;;2.50;99.90;;;;;;5044713;28;20446;-84
2023/03/07 07:58:35;;;;;;;0.00;0.00;;;2.50;99.90;;;;;;5045372;28;20540;-84
2023/03/07 08:01:14;;;;;;;0.00;0.00;;;2.50;99.90;;;;;;5077727;28;20040;-84
2023/03/07 08:03:40;;;;;;;0.00;0.00;;;2.60;99.90;;;;;;5045166;28;20106;-84
2023/03/07 08:06:05;;;;;;;0.00;0.00;;;2.70;1.00;;;;;;5033030;28;20119;-84
2023/03/07 08:08:31;;;;;;;0.00;0.00;;;2.70;1.00;;;;;;5035408;28;20522;-84
2023/03/07 08:10:57;;;;;;;0.03;0.03;;;2.70;99.90;;;;;;5027327;28;20458;-84
2023/03/07 08:13:23;;;;;;;0.00;0.00;;;2.80;99.90;;;;;;5025434;28;20046;-84
2023/03/07 08:15:48;;;;;;;0.00;0.00;;;2.90;99.90;;;;;;5025039;28;20045;-84
2023/03/07 08:18:14;;;;;;;0.00;0.00;;;3.00;99.90;;;;;;5025657;28;20140;-84
2023/03/07 08:20:40;;;;;;;0.00;0.00;;;3.20;99.90;;;;;;5022732;28;20049;-84
2023/03/07 08:23:06;;;;;;;0.03;0.03;;;3.30;99.90;;;;;;5024110;28;20489;-84
2023/03/07 08:25:32;;;;;;;0.00;0.00;;;3.40;99.90;;;;;;5022589;28;20051;-84
2023/03/07 08:27:58;;;;;;;0.00;0.00;;;3.50;43.50;;;;;;5023919;28;20483;-84
2023/03/07 08:30:28;;;;;;;0.00;0.00;;;3.60;99.90;;;;;;5027127;28;20097;-84
2023/03/07 08:32:55;;;;;;;0.00;0.00;;;3.70;99.90;;;;;;5027988;28;20507;-84
2023/03/07 08:35:22;;;;;;;0.20;0.20;;;3.70;1.00;;;;;;5024061;28;20099;-84
2023/03/07 08:37:48;;;;;;;0.00;0.00;;;3.80;1.00;;;;;;5024306;28;20472;-84
2023/03/07 08:40:15;;;;;;;0.00;0.00;;;3.80;99.90;;;;;;5023888;28;20513;-84
2023/03/07 08:42:41;;;;;;;0.00;0.00;;;3.90;99.90;;;;;;5022901;28;20099;-84
2023/03/07 08:45:08;;;;;;;0.00;0.00;;;3.90;99.90;;;;;;5024846;28;20049;-84
2023/03/07 08:47:34;;;;;;;0.00;0.00;;;4.00;99.90;;;;;;5023926;28;20132;-84
2023/03/07 08:50:01;;;;;;;0.00;0.00;;;4.00;1.00;;;;;;5024351;28;20049;-84
2023/03/07 08:52:27;;;;;;;0.00;0.00;;;4.10;1.00;;;;;;5023772;28;20049;-84
2023/03/07 08:54:52;;;;;;;0.00;0.00;;;4.20;1.00;;;;;;5023915;28;20060;-84
2023/03/07 08:57:18;;;;;;;0.10;0.10;;;4.20;99.90;;;;;;5029332;28;20447;-84
2023/03/07 08:59:43;;;;;;;0.00;0.00;;;4.20;99.90;;;;;;5043115;28;20041;-84
2023/03/07 09:02:10;;;;;;;0.00;0.00;;;4.30;99.90;;;;;;5041773;28;20037;-85
2023/03/07 09:04:36;;;;;;;0.00;0.00;;;4.30;99.90;;;;;;5043499;28;20060;-84
2023/03/07 09:07:02;;;;;;;0.80;0.75;;;4.20;92.80;;;;;;5044168;28;20052;-84
2023/03/07 09:09:30;;;;;;;0.00;0.00;;;4.00;99.90;;;;;;5044746;28;20128;-84
2023/03/07 09:11:56;;;;;;;0.00;0.00;;;3.90;99.90;;;;;;5043903;28;20057;-84
2023/03/07 09:14:22;;;;;;;0.17;0.17;;;3.70;99.90;;;;;;5043454;28;20346;-84
2023/03/07 09:16:48;;;;;;;0.10;0.10;;;3.50;99.90;;;;;;5043596;28;20109;-84
2023/03/07 09:19:13;;;;;;;0.52;0.52;;;3.30;1.00;;;;;;5043193;28;20045;-84
2023/03/07 09:21:39;;;;;;;0.00;0.00;;;3.10;1.00;;;;;;5043020;28;20118;-84
2023/03/07 09:24:05;;;;;;;0.00;0.00;;;3.00;66.10;;;;;;5043368;28;20120;-85
2023/03/07 09:26:31;;;;;;;0.00;0.00;;;2.90;99.90;;;;;;5042503;28;20041;-84
2023/03/07 09:28:57;;;;;;;0.00;0.00;;;2.90;1.00;;;;;;5043281;28;20438;-84
2023/03/07 09:31:23;;;;;;;0.10;0.10;;;2.90;99.90;;;;;;5042023;28;20040;-84
2023/03/07 09:33:48;;;;;;;0.00;0.00;;;2.90;99.90;;;;;;5042504;28;20037;-84
2023/03/07 09:36:16;;;;;;;0.00;0.00;;;2.90;1.00;;;;;;5042358;28;20044;-84
2023/03/07 09:38:42;;;;;;;0.10;0.10;;;2.90;99.90;;;;;;5042867;28;20310;-84
2023/03/07 09:41:45;;;;;;;0.00;0.00;;;2.90;99.90;;;;;;5041363;28;20045;-83
2023/03/07 09:44:32;;;;;;;1.17;1.10;;;2.90;87.80;;;;;;5043102;28;20049;-84
2023/03/07 09:47:42;;;;;;;0.00;0.00;;;2.90;99.90;;;;;;5042395;28;20056;-84
2023/03/07 09:50:16;;;;;;;0.10;0.10;;;2.90;99.90;;;;;;5038028;28;20061;-83
2023/03/07 09:52:43;;;;;;;0.00;0.00;;;2.90;33.30;;;;;;5042425;28;20041;-83
2023/03/07 09:55:17;;;;;;;0.00;0.00;;;3.00;99.90;;;;;;5042826;28;20552;-84
2023/03/07 09:57:58;;;;;;;0.10;0.10;;;3.10;99.90;;;;;;5042072;28;20045;-84
2023/03/07 10:00:39;;;;;;;0.00;0.00;;;3.30;1.00;;;;;;5042112;28;20118;-84
2023/03/07 10:03:31;;;;;;;0.10;0.10;;;3.40;99.90;;;;;;5041943;28;20051;-83
2023/03/07 10:06:15;;;;;;;0.28;0.28;;;3.50;1.00;;;;;;5041627;28;20450;-84
2023/03/07 10:08:41;;;;;;;0.00;0.00;;;3.50;99.90;;;;;;5041922;28;20076;-84
2023/03/07 10:11:23;;;;;;;0.03;0.03;;;3.50;99.90;;;;;;5042080;28;20593;-84
2023/03/07 10:14:24;;;;;;;0.10;0.10;;;3.60;99.90;;;;;;5042779;28;20041;-83
2023/03/07 10:16:57;;;;;;;0.00;0.00;;;3.70;1.00;;;;;;5042256;28;20178;-84
2023/03/07 10:19:49;;;;;;;11.32;1.73;;;3.80;1.00;;;;;;5042224;28;20479;-83
2023/03/07 10:22:46;;;;;;;0.28;0.28;;;4.00;1.00;;;;;;5042962;28;20041;-83
2023/03/07 10:25:39;;;;;;;0.03;0.03;;;4.30;99.90;;;;;;5043041;28;20049;-83
2023/03/07 10:28:28;;;;;;;0.00;0.00;;;4.50;99.90;;;;;;5042456;28;20059;-83
2023/03/07 10:30:59;;;;;;;0.15;0.15;;;4.80;99.90;;;;;;5041401;28;20147;-84
2023/03/07 10:33:27;;;;;;;0.00;0.00;;;5.10;99.90;;;;;;5043328;28;20464;-84
2023/03/07 10:36:07;;;;;;;0.20;0.20;;;5.30;1.00;;;;;;5042112;28;20048;-84
2023/03/07 10:38:47;;;;;;;0.00;0.00;;;5.50;1.00;;;;;;5041080;28;20045;-84
2023/03/07 10:41:14;;;;;;;0.10;0.10;;;5.70;99.90;;;;;;5042210;28;20053;-83
2023/03/07 10:43:39;;;;;;;0.43;0.38;;;5.70;99.90;;;;;;5042414;28;20053;-84
2023/03/07 10:46:17;;;;;;;0.25;0.25;;;5.80;1.00;;;;;;5041676;28;20065;-83
2023/03/07 10:48:47;;;;;;;0.00;0.00;;;5.90;99.90;;;;;;5042253;28;20100;-83
2023/03/07 10:51:44;;;;;;;0.00;0.00;;;6.20;1.00;;;;;;5042505;28;20140;-83
2023/03/07 10:54:20;;;;;;;0.35;0.35;;;6.20;99.90;;;;;;5042739;28;20051;-84
2023/03/07 10:57:12;;;;;;;0.00;0.00;;;6.20;99.90;;;;;;5043012;28;20059;-84
2023/03/07 10:59:42;;;;;;;0.00;0.00;;;6.40;99.90;;;;;;5042504;28;20135;-83
2023/03/07 11:02:55;;;;;;;0.10;0.10;;;6.50;99.90;;;;;;5044229;28;20045;-83
2023/03/07 11:05:32;;;;;;;0.00;0.00;;;6.50;1.00;;;;;;5045790;28;20084;-83
2023/03/07 11:07:59;;;;;;;0.08;0.08;;;6.50;19.90;;;;;;5052338;28;20529;-83
2023/03/07 11:10:35;;;;;;;0.00;0.00;;;6.60;99.90;;;;;;5051625;28;20045;-83
2023/03/07 11:13:27;;;;;;;0.00;0.00;;;6.60;1.00;;;;;;5053103;28;20138;-83
2023/03/07 11:16:20;;;;;;;0.00;0.00;;;6.60;1.00;;;;;;5049823;28;20053;-83
2023/03/07 11:18:46;;;;;;;0.00;0.00;;;6.60;1.00;;;;;;5050488;28;20052;-83
2023/03/07 11:21:33;;;;;;;0.00;0.00;;;6.70;1.00;;;;;;5051410;28;20102;-83
2023/03/07 11:24:03;;;;;;;0.10;0.10;;;6.80;1.60;;;;;;5051784;28;20419;-83
2023/03/07 11:26:38;;;;;;;2.17;0.90;;;6.90;1.00;;;;;;5051340;28;20055;-84
2023/03/07 11:29:09;;;;;;;0.73;0.30;;;6.90;99.90;;;;;;5050798;28;20498;-83
2023/03/07 11:32:08;;;;;;;0.00;0.00;;;6.80;99.90;;;;;;5053290;28;20049;-83
2023/03/07 11:34:52;;;;;;;0.90;0.85;;;6.80;99.90;;;;;;5053600;28;20056;-83
2023/03/07 11:37:25;;;;;;;0.00;0.00;;;6.70;99.90;;;;;;5051283;28;20083;-83
2023/03/07 11:40:22;;;;;;;7.90;0.85;;;6.80;99.90;;;;;;5050814;28;20052;-83
2023/03/07 11:43:07;;;;;;;;;;;6.90;1.00;;;;;;5051780;28;20057;-83
2023/03/07 11:45:33;;;;;;;0.00;0.00;;;7.00;99.90;;;;;;5050191;28;19925;-83
2023/03/07 11:48:33;;;;;;;16.45;0.35;;;7.00;99.90;;;;;;5051988;28;20048;-83
2023/03/07 11:51:00;;;;;;;0.38;0.32;;;6.70;99.90;;;;;;5051812;28;20109;-83
2023/03/07 11:53:38;;;;;;;1.65;0.65;;;6.60;99.90;;;;;;5052034;28;20052;-83
2023/03/07 11:56:24;;;;;;;0.00;0.00;;;6.70;99.90;;;;;;5052064;28;20140;-84
2023/03/07 11:59:05;;;;;;;0.00;0.00;;;6.70;99.90;;;;;;5052710;28;20601;-83
2023/03/07 12:01:51;;;;;;;0.85;0.47;;;6.80;99.90;;;;;;5052499;28;20371;-83
2023/03/07 12:04:29;;;;;;;0.28;0.28;;;6.70;99.90;;;;;;5053152;28;20056;-83
2023/03/07 12:07:04;;;;;;;0.00;0.00;;;7.60;99.90;;;;;;5054584;28;20174;-83
2023/03/07 12:09:54;;;;;;;0.00;0.00;;;6.10;99.90;;;;;;5055815;28;20075;-83
2023/03/07 12:12:35;;;;;;;0.22;0.22;;;5.00;99.90;;;;;;5057680;28;20082;-83
2023/03/07 12:15:07;;;;;;;0.13;0.13;;;4.60;1.00;;;;;;5057774;28;20045;-83
2023/03/07 12:18:05;;;;;;;0.00;0.00;;;4.80;10.20;;;;;;5053694;28;20111;-82
2023/03/07 12:20:38;;;;;;;0.00;0.00;;;4.80;1.00;;;;;;5054162;28;20045;-83
2023/03/07 12:23:18;;;;;;;0.00;0.00;;;4.90;99.90;;;;;;5055356;28;20101;-83
2023/03/07 12:25:57;;;;;;;0.00;0.00;;;4.90;1.00;;;;;;5053433;28;20403;-83
2023/03/07 12:28:34;;;;;;;0.15;0.15;;;5.00;1.00;;;;;;5053197;28;20475;-83
2023/03/07 12:31:15;;;;;;;0.00;0.00;;;5.00;1.00;;;;;;5052744;28;20118;-83
2023/03/07 12:34:10;;;;;;;0.00;0.00;;;4.90;99.90;;;;;;5053955;28;20074;-83
2023/03/07 12:36:45;;;;;;;0.00;0.00;;;5.00;99.90;;;;;;5051130;28;20495;-83
2023/03/07 12:39:20;;;;;;;0.00;0.00;;;5.10;99.90;;;;;;5053925;28;20049;-83
2023/03/07 12:41:51;;;;;;;2.08;1.65;;;5.20;99.90;;;;;;5054253;28;20094;-83
2023/03/07 12:44:40;;;;;;;0.47;0.47;;;5.30;99.90;;;;;;5053535;28;20049;-83
2023/03/07 12:47:40;;;;;;;0.35;0.35;;;5.30;99.90;;;;;;5052891;28;20059;-83
2023/03/07 12:50:09;;;;;;;0.00;0.00;;;5.40;99.90;;;;;;5052268;28;20095;-83
2023/03/07 12:52:58;;;;;;;0.00;0.00;;;5.60;99.90;;;;;;5051487;28;20049;-83
2023/03/07 12:55:35;;;;;;;0.00;0.00;;;5.60;99.90;;;;;;5053027;28;20084;-83
2023/03/07 12:58:12;;;;;;;0.00;0.00;;;5.60;99.90;;;;;;5051643;28;20075;-83
2023/03/07 13:01:06;;;;;;;0.75;0.65;;;5.60;99.90;;;;;;5053162;28;20053;-83
2023/03/07 13:03:52;;;;;;;0.00;0.00;;;5.40;99.90;;;;;;5052795;28;20044;-83
2023/03/07 13:06:20;;;;;;;20.88;0.57;;;5.30;99.90;;;;;;5053162;28;20079;-83
2023/03/07 13:08:53;;;;;;;0.52;0.47;;;5.30;99.90;;;;;;5053797;28;20068;-83
2023/03/07 13:11:21;;;;;;;0.50;0.50;;;5.40;99.90;;;;;;5053968;28;20041;-83
2023/03/07 13:13:58;;;;;;;0.00;0.00;;;5.80;99.90;;;;;;5053329;28;20049;-83
2023/03/07 13:16:34;;;;;;;0.00;0.00;;;6.20;99.90;;;;;;5053883;28;20171;-83